Terminal Aerodrome Forecast
Issued by NWS Indianapolis, IN

Home | Current Version | Previous Version | Text Only | Print | Product List | Glossary On
Versions: 1 2 3 4 5 6 7 8 9 10 11 12 13 14 15 16 17 18 19 20 21 22 23
582
FTUS43 KIND 171120
TAFIND
TAF
KIND 171120Z 1712/1818 20006KT P6SM VCSH SCT070 BKN110
     FM171900 22010KT P6SM -SHRA BKN060
     FM172200 23009KT P6SM VCTS BKN080CB
     FM180100 23006KT P6SM SCT200=

USA.gov is the U.S. government's official web portal to all federal, state and local government web resources and services.